Time;durP1;ratioP1;P1;durP2;ratioP2;P2;SDS_P1;SDS_P2;PMS_P1;PMS_P2;Temp;Humidity;BMP_temperature;BMP_pressure;BME280_temperature;BME280_humidity;BME280_pressure;Samples;Min_cycle;Max_cycle;Signal;HPM_P1;HPM_P2
2021/05/22 00:00:16;;;;;;;;;;;22.70;43.00;;;;;;1621113;72;1139;-52
2021/05/22 00:02:18;;;;;;;;;;;22.70;42.90;;;;;;1632627;72;776;-52
2021/05/22 00:04:20;;;;;;;;;;;22.80;43.00;;;;;;1623833;71;707;-54
2021/05/22 00:06:22;;;;;;;;;;;22.80;43.10;;;;;;1620756;71;783;-54
2021/05/22 00:08:24;;;;;;;;;;;22.70;43.10;;;;;;1632003;71;713;-54
2021/05/22 00:10:26;;;;;;;;;;;22.80;43.00;;;;;;1623531;71;1134;-51
2021/05/22 00:12:28;;;;;;;;;;;22.70;43.10;;;;;;1625936;71;1935;-54
2021/05/22 00:14:30;;;;;;;;;;;22.80;43.10;;;;;;1633254;71;710;-55
2021/05/22 00:16:32;;;;;;;;;;;22.80;43.00;;;;;;1632675;71;757;-54
2021/05/22 00:18:34;;;;;;;;;;;22.70;43.10;;;;;;1626405;72;750;-52
2021/05/22 00:20:36;;;;;;;;;;;22.80;43.00;;;;;;1632339;71;1129;-54
2021/05/22 00:22:39;;;;;;;;;;;22.70;43.00;;;;;;1629545;71;780;-55
2021/05/22 00:24:41;;;;;;;;;;;22.70;42.90;;;;;;1618774;71;632;-53
2021/05/22 00:26:43;;;;;;;;;;;22.80;42.90;;;;;;1625883;71;770;-55
2021/05/22 00:28:44;;;;;;;;;;;22.70;43.00;;;;;;1630659;71;713;-54
2021/05/22 00:30:46;;;;;;;;;;;22.70;43.10;;;;;;1632593;71;1267;-55
2021/05/22 00:32:48;;;;;;;;;;;22.70;43.10;;;;;;1630975;71;1975;-52
2021/05/22 00:34:50;;;;;;;;;;;22.80;43.00;;;;;;1638852;71;683;-54
2021/05/22 00:36:52;;;;;;;;;;;22.70;42.80;;;;;;1631879;71;694;-53
2021/05/22 00:38:54;;;;;;;;;;;22.70;42.90;;;;;;1626925;71;735;-53
2021/05/22 00:40:56;;;;;;;;;;;22.80;42.90;;;;;;1635038;71;1164;-52
2021/05/22 00:42:58;;;;;;;;;;;22.70;42.90;;;;;;1635727;71;774;-54
2021/05/22 00:45:08;;;;;;;;;;;22.70;42.90;;;;;;1635236;71;716;-53
2021/05/22 00:47:10;;;;;;;;;;;22.80;42.90;;;;;;1617951;71;659;-54
2021/05/22 00:49:12;;;;;;;;;;;22.70;42.90;;;;;;1614396;71;784;-53
2021/05/22 00:51:14;;;;;;;;;;;22.70;42.90;;;;;;1633867;71;1156;-54
2021/05/22 00:53:15;;;;;;;;;;;22.80;42.70;;;;;;1633386;71;1968;-53
2021/05/22 00:55:17;;;;;;;;;;;22.80;42.80;;;;;;1648474;71;711;-55
2021/05/22 00:57:19;;;;;;;;;;;22.90;43.00;;;;;;1622982;71;715;-51
2021/05/22 00:59:21;;;;;;;;;;;22.80;42.80;;;;;;1627854;71;725;-53
2021/05/22 01:01:23;;;;;;;;;;;22.80;42.60;;;;;;1623238;71;1134;-55
2021/05/22 01:03:37;;;;;;;;;;;22.80;42.70;;;;;;1628649;71;705;-53
2021/05/22 01:05:40;;;;;;;;;;;22.70;42.70;;;;;;1618509;71;747;-53
2021/05/22 01:07:44;;;;;;;;;;;22.80;42.90;;;;;;1634879;71;829;-54
2021/05/22 01:09:47;;;;;;;;;;;22.70;42.80;;;;;;1617132;71;1135;-51
2021/05/22 01:11:50;;;;;;;;;;;22.80;42.90;;;;;;1612445;71;1697;-53
2021/05/22 01:13:53;;;;;;;;;;;22.90;43.10;;;;;;1617616;71;1950;-54
2021/05/22 01:15:55;;;;;;;;;;;22.80;43.00;;;;;;1626243;71;1025;-53
2021/05/22 01:17:57;;;;;;;;;;;22.70;43.00;;;;;;1626871;71;747;-55
2021/05/22 01:20:03;;;;;;;;;;;22.80;42.90;;;;;;1626314;71;1148;-55
2021/05/22 01:22:25;;;;;;;;;;;22.80;42.90;;;;;;1615441;71;698;-55
2021/05/22 01:24:26;;;;;;;;;;;22.80;43.00;;;;;;1574663;73;706;-53
2021/05/22 01:26:29;;;;;;;;;;;22.80;43.00;;;;;;1590523;73;791;-54
2021/05/22 01:28:31;;;;;;;;;;;22.80;43.00;;;;;;1585711;73;729;-53
2021/05/22 01:30:33;;;;;;;;;;;22.80;42.70;;;;;;1603591;72;1144;-51
2021/05/22 01:32:35;;;;;;;;;;;22.70;42.80;;;;;;1606916;72;1975;-54
2021/05/22 01:34:37;;;;;;;;;;;22.70;42.70;;;;;;1610087;73;707;-52
2021/05/22 01:36:38;;;;;;;;;;;22.80;42.60;;;;;;1611579;73;670;-53
2021/05/22 01:38:40;;;;;;;;;;;22.80;42.60;;;;;;1601030;73;781;-53
2021/05/22 01:40:42;;;;;;;;;;;22.70;42.70;;;;;;1604505;73;1131;-53
2021/05/22 01:42:44;;;;;;;;;;;22.80;42.30;;;;;;1593753;73;706;-52
2021/05/22 01:44:46;;;;;;;;;;;22.70;42.60;;;;;;1601144;73;797;-52
2021/05/22 01:46:48;;;;;;;;;;;22.80;42.60;;;;;;1601829;72;710;-53
2021/05/22 01:48:50;;;;;;;;;;;22.80;42.70;;;;;;1619246;73;777;-51
2021/05/22 01:50:58;;;;;;;;;;;22.80;42.70;;;;;;1601891;73;1142;-55
2021/05/22 01:53:01;;;;;;;;;;;22.70;42.70;;;;;;1600679;73;1911;-53
2021/05/22 01:55:03;;;;;;;;;;;22.80;42.70;;;;;;1627041;73;763;-51
2021/05/22 01:57:05;;;;;;;;;;;22.70;42.70;;;;;;1601589;73;727;-52
2021/05/22 01:59:07;;;;;;;;;;;22.70;42.40;;;;;;1623230;73;694;-51
2021/05/22 02:01:11;;;;;;;;;;;22.70;42.40;;;;;;1619775;71;1137;-50
2021/05/22 02:03:22;;;;;;;;;;;22.70;42.50;;;;;;1592864;73;756;-53
2021/05/22 02:05:24;;;;;;;;;;;22.80;42.40;;;;;;1596369;73;1775;-52
2021/05/22 02:07:26;;;;;;;;;;;22.70;42.60;;;;;;1614435;73;726;-53
2021/05/22 02:09:28;;;;;;;;;;;22.80;42.60;;;;;;1601536;71;759;-52
2021/05/22 02:11:30;;;;;;;;;;;22.60;42.60;;;;;;1603053;73;1082;-53
2021/05/22 02:13:31;;;;;;;;;;;22.70;42.50;;;;;;1596669;73;1935;-54
2021/05/22 02:15:33;;;;;;;;;;;22.80;42.50;;;;;;1618890;73;711;-52
2021/05/22 02:17:36;;;;;;;;;;;22.80;42.40;;;;;;1613704;73;737;-52
2021/05/22 02:19:38;;;;;;;;;;;22.80;42.40;;;;;;1606254;73;665;-52
2021/05/22 02:21:40;;;;;;;;;;;22.80;42.50;;;;;;1606456;73;1115;-53
2021/05/22 02:23:44;;;;;;;;;;;22.80;42.40;;;;;;1614951;72;726;-53
2021/05/22 02:25:46;;;;;;;;;;;22.80;42.20;;;;;;1615475;72;714;-55
2021/05/22 02:27:48;;;;;;;;;;;22.80;42.20;;;;;;1611686;73;749;-51
2021/05/22 02:29:50;;;;;;;;;;;22.80;42.00;;;;;;1586996;71;215998;-71
2021/05/22 02:31:51;;;;;;;;;;;22.80;42.10;;;;;;1596633;73;713;-71
2021/05/22 02:33:55;;;;;;;;;;;22.80;42.10;;;;;;1597033;73;1945;-70
2021/05/22 02:35:57;;;;;;;;;;;22.80;42.20;;;;;;1595802;73;772;-70
2021/05/22 02:37:59;;;;;;;;;;;22.70;42.20;;;;;;1577296;74;1212;-67
2021/05/22 02:40:01;;;;;;;;;;;22.70;42.30;;;;;;1594951;73;867;-69
2021/05/22 02:42:04;;;;;;;;;;;22.70;42.60;;;;;;1560974;74;816;-70
2021/05/22 02:44:06;;;;;;;;;;;22.70;42.60;;;;;;1598605;73;916;-71
2021/05/22 02:46:08;;;;;;;;;;;22.70;42.80;;;;;;1597222;73;738;-69
2021/05/22 02:48:11;;;;;;;;;;;22.70;42.80;;;;;;1591137;73;1232;-71
2021/05/22 02:50:13;;;;;;;;;;;22.70;42.80;;;;;;1590634;73;993;-69
2021/05/22 02:52:16;;;;;;;;;;;22.60;43.00;;;;;;1598723;73;837;-70
2021/05/22 02:54:19;;;;;;;;;;;22.50;42.80;;;;;;1605065;73;1937;-71
2021/05/22 02:56:21;;;;;;;;;;;22.50;42.80;;;;;;1599253;73;784;-69
2021/05/22 02:58:22;;;;;;;;;;;22.40;42.60;;;;;;1598531;73;1132;-70
2021/05/22 03:00:24;;;;;;;;;;;22.40;42.60;;;;;;1592127;73;783;-71
2021/05/22 03:02:26;;;;;;;;;;;22.40;42.60;;;;;;1591380;73;736;-70
2021/05/22 03:04:29;;;;;;;;;;;22.50;42.50;;;;;;1598449;73;772;-70
2021/05/22 03:06:31;;;;;;;;;;;22.50;42.30;;;;;;1599832;73;745;-69
2021/05/22 03:08:42;;;;;;;;;;;22.50;42.40;;;;;;1596171;73;1169;-70
2021/05/22 03:10:44;;;;;;;;;;;22.50;42.10;;;;;;1592224;73;763;-70
2021/05/22 03:12:46;;;;;;;;;;;22.60;42.10;;;;;;1598718;73;819;-70
2021/05/22 03:14:48;;;;;;;;;;;22.60;42.00;;;;;;1595927;73;1941;-70
2021/05/22 03:16:50;;;;;;;;;;;22.60;42.00;;;;;;1599200;73;788;-70
2021/05/22 03:18:52;;;;;;;;;;;22.50;42.10;;;;;;1599475;73;1134;-70
2021/05/22 03:20:54;;;;;;;;;;;22.60;42.00;;;;;;1599335;73;848;-71
2021/05/22 03:22:56;;;;;;;;;;;22.60;42.10;;;;;;1599134;73;778;-70
2021/05/22 03:24:58;;;;;;;;;;;22.50;42.10;;;;;;1597966;73;773;-70
2021/05/22 03:27:00;;;;;;;;;;;22.50;42.30;;;;;;1597161;73;805;-71
2021/05/22 03:29:02;;;;;;;;;;;22.40;42.30;;;;;;1605393;73;1122;-70
2021/05/22 03:31:04;;;;;;;;;;;22.40;42.10;;;;;;1599450;73;803;-70
2021/05/22 03:33:06;;;;;;;;;;;22.50;42.30;;;;;;1598913;73;743;-70
2021/05/22 03:35:08;;;;;;;;;;;22.40;42.70;;;;;;1589888;73;1949;-69
2021/05/22 03:37:10;;;;;;;;;;;22.40;42.70;;;;;;1588739;73;790;-70
2021/05/22 03:39:12;;;;;;;;;;;22.30;42.80;;;;;;1602317;73;1079;-69
2021/05/22 03:41:13;;;;;;;;;;;22.30;43.00;;;;;;1595315;73;842;-70
2021/05/22 03:43:15;;;;;;;;;;;22.50;42.60;;;;;;1596673;73;744;-67
2021/05/22 03:45:17;;;;;;;;;;;22.40;42.30;;;;;;1584843;73;797;-69
2021/05/22 03:47:19;;;;;;;;;;;22.40;42.60;;;;;;1599470;73;783;-71
2021/05/22 03:49:21;;;;;;;;;;;22.40;42.70;;;;;;1598943;73;1106;-70
2021/05/22 03:51:23;;;;;;;;;;;22.40;42.50;;;;;;1598077;73;916;-69
2021/05/22 03:53:25;;;;;;;;;;;22.40;42.70;;;;;;1600057;73;1938;-69
2021/05/22 03:55:27;;;;;;;;;;;22.40;42.90;;;;;;1595876;73;774;-68
2021/05/22 03:57:28;;;;;;;;;;;22.40;42.70;;;;;;1600632;73;739;-69
2021/05/22 03:59:30;;;;;;;;;;;22.40;43.10;;;;;;1595544;73;1114;-69
2021/05/22 04:01:32;;;;;;;;;;;22.40;42.80;;;;;;1597464;73;781;-69
2021/05/22 04:03:34;;;;;;;;;;;22.40;42.90;;;;;;1591480;73;710;-70
2021/05/22 04:05:36;;;;;;;;;;;22.50;42.90;;;;;;1589530;73;800;-69
2021/05/22 04:07:38;;;;;;;;;;;22.60;42.90;;;;;;1599327;73;786;-67
2021/05/22 04:09:40;;;;;;;;;;;22.60;42.80;;;;;;1598828;73;1128;-69
2021/05/22 04:11:42;;;;;;;;;;;22.60;42.50;;;;;;1598296;73;785;-69
2021/05/22 04:13:43;;;;;;;;;;;22.60;42.80;;;;;;1593840;73;1925;-69
2021/05/22 04:15:45;;;;;;;;;;;22.50;43.10;;;;;;1600813;73;757;-69
2021/05/22 04:17:47;;;;;;;;;;;22.40;42.80;;;;;;1597244;73;783;-70
2021/05/22 04:19:49;;;;;;;;;;;22.40;43.10;;;;;;1600030;73;1020;-71
2021/05/22 04:21:51;;;;;;;;;;;22.40;43.20;;;;;;1598713;73;739;-70
2021/05/22 04:23:53;;;;;;;;;;;22.40;43.10;;;;;;1599833;73;738;-70
2021/05/22 04:25:55;;;;;;;;;;;22.40;42.80;;;;;;1598555;73;730;-70
2021/05/22 04:27:57;;;;;;;;;;;22.40;42.60;;;;;;1601820;73;1134;-70
2021/05/22 04:29:58;;;;;;;;;;;22.40;42.90;;;;;;1600295;73;786;-69
2021/05/22 04:32:00;;;;;;;;;;;22.30;42.60;;;;;;1594092;73;746;-70
2021/05/22 04:34:02;;;;;;;;;;;22.40;42.60;;;;;;1599616;73;1942;-70
2021/05/22 04:36:05;;;;;;;;;;;22.40;42.50;;;;;;1598821;73;727;-70
2021/05/22 04:38:07;;;;;;;;;;;22.50;42.20;;;;;;1599597;73;1151;-70
2021/05/22 04:40:09;;;;;;;;;;;22.50;42.50;;;;;;1602053;73;719;-70
2021/05/22 04:42:11;;;;;;;;;;;22.60;42.10;;;;;;1599554;73;770;-70
2021/05/22 04:44:13;;;;;;;;;;;22.60;42.10;;;;;;1597805;73;737;-70
2021/05/22 04:46:14;;;;;;;;;;;22.60;42.30;;;;;;1599250;73;726;-69
2021/05/22 04:48:16;;;;;;;;;;;22.60;42.20;;;;;;1583673;73;1160;-68
2021/05/22 04:50:18;;;;;;;;;;;22.60;42.40;;;;;;1598150;73;710;-69
2021/05/22 04:52:22;;;;;;;;;;;22.60;42.10;;;;;;1598126;73;756;-70
2021/05/22 04:54:24;;;;;;;;;;;22.60;42.20;;;;;;1598746;73;1938;-70
2021/05/22 04:56:25;;;;;;;;;;;22.60;42.40;;;;;;1596782;73;797;-69
2021/05/22 04:58:27;;;;;;;;;;;22.60;42.40;;;;;;1596786;73;1151;-71
2021/05/22 05:00:29;;;;;;;;;;;22.40;42.50;;;;;;1588551;73;742;-69
2021/05/22 05:02:31;;;;;;;;;;;22.40;42.50;;;;;;1598699;73;790;-69
2021/05/22 05:04:33;;;;;;;;;;;22.40;42.60;;;;;;1598673;73;798;-69
2021/05/22 05:06:35;;;;;;;;;;;22.50;42.70;;;;;;1598283;73;803;-70
2021/05/22 05:08:37;;;;;;;;;;;22.50;42.40;;;;;;1598057;73;1194;-70
2021/05/22 05:10:39;;;;;;;;;;;22.50;42.30;;;;;;1597595;73;724;-70
2021/05/22 05:12:40;;;;;;;;;;;22.60;42.20;;;;;;1600071;73;748;-70
2021/05/22 05:14:42;;;;;;;;;;;22.60;42.00;;;;;;1599167;73;1946;-71
2021/05/22 05:16:44;;;;;;;;;;;22.60;42.40;;;;;;1599997;73;774;-70
2021/05/22 05:18:46;;;;;;;;;;;22.50;42.50;;;;;;1594161;73;1143;-70
2021/05/22 05:20:48;;;;;;;;;;;22.50;42.60;;;;;;1593633;73;685;-71
2021/05/22 05:22:51;;;;;;;;;;;22.50;42.60;;;;;;1599545;73;758;-70
2021/05/22 05:24:53;;;;;;;;;;;22.40;42.70;;;;;;1599485;73;933;-70
2021/05/22 05:26:55;;;;;;;;;;;22.50;42.90;;;;;;1594613;73;813;-73
2021/05/22 05:28:57;;;;;;;;;;;22.60;42.60;;;;;;1601425;73;1133;-70
2021/05/22 05:30:59;;;;;;;;;;;22.70;42.50;;;;;;1595442;73;777;-70
2021/05/22 05:33:01;;;;;;;;;;;22.70;42.60;;;;;;1595928;73;828;-68
2021/05/22 05:35:03;;;;;;;;;;;22.70;42.40;;;;;;1599626;73;1945;-67
2021/05/22 05:37:05;;;;;;;;;;;22.60;42.50;;;;;;1596657;73;1045;-69
2021/05/22 05:39:07;;;;;;;;;;;22.60;42.20;;;;;;1598055;73;1147;-69
2021/05/22 05:41:09;;;;;;;;;;;22.60;42.10;;;;;;1597672;73;872;-68
2021/05/22 05:43:11;;;;;;;;;;;22.50;41.80;;;;;;1601487;73;772;-70
2021/05/22 05:45:14;;;;;;;;;;;22.50;42.20;;;;;;1598544;73;787;-72
2021/05/22 05:47:16;;;;;;;;;;;22.50;42.30;;;;;;1599506;73;792;-69
2021/05/22 05:49:17;;;;;;;;;;;22.50;42.80;;;;;;1597880;73;1143;-70
2021/05/22 05:51:19;;;;;;;;;;;22.40;42.40;;;;;;1597794;73;787;-69
2021/05/22 05:53:21;;;;;;;;;;;22.30;42.50;;;;;;1597313;73;738;-70
2021/05/22 05:55:23;;;;;;;;;;;22.30;42.60;;;;;;1595552;73;1949;-70
2021/05/22 05:57:25;;;;;;;;;;;22.30;42.70;;;;;;1596037;73;792;-71
2021/05/22 05:59:27;;;;;;;;;;;22.40;42.30;;;;;;1597337;73;1162;-69
2021/05/22 06:01:30;;;;;;;;;;;22.50;42.30;;;;;;1597231;73;798;-68
2021/05/22 06:03:32;;;;;;;;;;;22.50;42.30;;;;;;1597188;73;864;-69
2021/05/22 06:05:34;;;;;;;;;;;22.60;42.30;;;;;;1596817;73;857;-69
2021/05/22 06:07:36;;;;;;;;;;;22.60;42.30;;;;;;1597105;73;755;-70
2021/05/22 06:09:40;;;;;;;;;;;22.60;42.30;;;;;;1599275;73;1158;-72
2021/05/22 06:11:41;;;;;;;;;;;22.60;42.30;;;;;;1600208;73;1522;-68
2021/05/22 06:13:43;;;;;;;;;;;22.60;42.60;;;;;;1596534;73;1044;-69
2021/05/22 06:15:49;;;;;;;;;;;22.50;42.50;;;;;;1593822;73;1926;-70
2021/05/22 06:17:49;;;;;;;;;;;22.40;42.40;;;;;;1597473;73;1485;-70
2021/05/22 06:19:51;;;;;;;;;;;22.40;42.40;;;;;;1598189;73;1145;-69
2021/05/22 06:21:53;;;;;;;;;;;22.40;42.30;;;;;;1600155;72;781;-69
2021/05/22 06:23:55;;;;;;;;;;;22.40;42.10;;;;;;1597114;73;727;-70
2021/05/22 06:25:58;;;;;;;;;;;22.50;42.00;;;;;;1594590;73;773;-71
2021/05/22 06:27:59;;;;;;;;;;;22.50;41.80;;;;;;1601567;73;1129;-70
2021/05/22 06:30:01;;;;;;;;;;;22.60;41.70;;;;;;1598545;73;782;-70
2021/05/22 06:32:03;;;;;;;;;;;22.60;41.50;;;;;;1597467;73;863;-70
2021/05/22 06:34:05;;;;;;;;;;;22.60;41.50;;;;;;1596884;73;709;-70
2021/05/22 06:36:08;;;;;;;;;;;22.60;41.40;;;;;;1596723;73;1932;-71
2021/05/22 06:38:10;;;;;;;;;;;22.70;41.30;;;;;;1596921;73;1261;-70
2021/05/22 06:40:12;;;;;;;;;;;22.60;41.30;;;;;;1598326;73;789;-70
2021/05/22 06:42:14;;;;;;;;;;;22.60;41.30;;;;;;1597733;73;745;-69
2021/05/22 06:44:29;;;;;;;;;;;22.60;41.20;;;;;;1597424;73;596;-67
2021/05/22 06:48:32;;;;;;;;;;;22.60;41.40;;;;;;1598067;73;1182;-73
2021/05/22 06:50:35;;;;;;;;;;;22.60;41.30;;;;;;1600046;73;746;-69
2021/05/22 06:52:36;;;;;;;;;;;22.60;41.40;;;;;;1596772;73;756;-70
2021/05/22 06:54:38;;;;;;;;;;;22.60;41.30;;;;;;1598443;73;1931;-70
2021/05/22 06:56:40;;;;;;;;;;;22.60;41.30;;;;;;1597908;73;726;-71
2021/05/22 06:58:42;;;;;;;;;;;22.60;41.30;;;;;;1599357;73;1133;-70
2021/05/22 07:00:44;;;;;;;;;;;22.50;41.30;;;;;;1599037;73;869;-70
2021/05/22 07:02:46;;;;;;;;;;;22.50;41.30;;;;;;1596959;73;775;-70
2021/05/22 07:04:48;;;;;;;;;;;22.50;41.00;;;;;;1599243;73;742;-71
2021/05/22 07:06:50;;;;;;;;;;;22.50;40.90;;;;;;1595400;73;725;-69
2021/05/22 07:08:54;;;;;;;;;;;22.50;40.90;;;;;;1597285;73;1152;-70
2021/05/22 07:10:56;;;;;;;;;;;22.50;41.00;;;;;;1600602;73;1674;-71
2021/05/22 07:12:58;;;;;;;;;;;22.50;41.00;;;;;;1595583;73;725;-70
2021/05/22 07:14:59;;;;;;;;;;;22.50;40.90;;;;;;1600569;73;1929;-70
2021/05/22 07:17:01;;;;;;;;;;;22.60;40.80;;;;;;1600927;73;796;-66
2021/05/22 07:19:03;;;;;;;;;;;22.50;40.90;;;;;;1600410;73;1081;-68
2021/05/22 07:21:05;;;;;;;;;;;22.50;41.20;;;;;;1600140;73;744;-69
2021/05/22 07:23:07;;;;;;;;;;;22.50;41.30;;;;;;1597779;73;679;-69
2021/05/22 07:25:10;;;;;;;;;;;22.50;41.50;;;;;;1602886;73;727;-66
2021/05/22 07:27:12;;;;;;;;;;;22.50;41.40;;;;;;1601749;73;723;-66
2021/05/22 07:29:13;;;;;;;;;;;22.60;41.40;;;;;;1595646;73;1174;-69
2021/05/22 07:31:15;;;;;;;;;;;22.50;39.70;;;;;;1596725;73;813;-67
2021/05/22 07:33:17;;;;;;;;;;;22.50;40.40;;;;;;1599855;73;775;-68
2021/05/22 07:35:19;;;;;;;;;;;22.50;40.00;;;;;;1599288;73;1927;-67
2021/05/22 07:37:21;;;;;;;;;;;22.50;40.10;;;;;;1598288;73;728;-69
2021/05/22 07:39:23;;;;;;;;;;;22.50;40.00;;;;;;1598779;73;1158;-68
2021/05/22 07:41:25;;;;;;;;;;;22.50;40.10;;;;;;1598519;73;832;-70
2021/05/22 07:43:27;;;;;;;;;;;22.50;39.90;;;;;;1587945;73;786;-69
2021/05/22 07:45:29;;;;;;;;;;;22.50;39.70;;;;;;1604944;73;700;-66
2021/05/22 07:47:31;;;;;;;;;;;22.40;39.20;;;;;;1594765;73;738;-70
2021/05/22 07:49:38;;;;;;;;;;;22.40;38.60;;;;;;1600481;73;1168;-67
2021/05/22 07:51:41;;;;;;;;;;;22.50;38.60;;;;;;1601977;73;585;-71
2021/05/22 07:53:43;;;;;;;;;;;22.40;38.40;;;;;;1593359;73;662;-71
2021/05/22 07:55:45;;;;;;;;;;;22.40;38.50;;;;;;1601121;73;1897;-71
2021/05/22 07:57:47;;;;;;;;;;;22.40;38.00;;;;;;1593966;73;786;-71
2021/05/22 07:59:49;;;;;;;;;;;22.40;37.60;;;;;;1597135;73;1097;-71
2021/05/22 08:01:51;;;;;;;;;;;22.40;37.50;;;;;;1598716;73;736;-71
2021/05/22 08:03:53;;;;;;;;;;;22.40;37.90;;;;;;1597278;73;839;-71
2021/05/22 08:05:55;;;;;;;;;;;22.40;37.60;;;;;;1602803;73;697;-71
2021/05/22 08:07:56;;;;;;;;;;;22.40;37.60;;;;;;1599135;73;1162;-72
2021/05/22 08:09:58;;;;;;;;;;;22.30;37.60;;;;;;1601159;73;819;-73
2021/05/22 08:12:00;;;;;;;;;;;22.40;37.60;;;;;;1606480;73;790;-71
2021/05/22 08:14:02;;;;;;;;;;;22.40;38.10;;;;;;1602104;73;736;-70
2021/05/22 08:16:04;;;;;;;;;;;22.40;38.30;;;;;;1598313;73;1913;-70
2021/05/22 08:18:06;;;;;;;;;;;22.30;38.30;;;;;;1600163;73;1172;-71
2021/05/22 08:20:10;;;;;;;;;;;22.30;38.50;;;;;;1602164;73;773;-71
2021/05/22 08:22:12;;;;;;;;;;;22.30;38.60;;;;;;1599155;73;764;-71
2021/05/22 08:24:14;;;;;;;;;;;22.30;38.80;;;;;;1601004;73;748;-70
2021/05/22 08:26:16;;;;;;;;;;;22.30;38.90;;;;;;1598549;73;784;-71
2021/05/22 08:30:22;;;;;;;;;;;22.40;38.80;;;;;;1562990;74;667;-69
2021/05/22 08:32:25;;;;;;;;;;;22.40;38.70;;;;;;1566980;74;778;-70
2021/05/22 08:34:27;;;;;;;;;;;22.40;38.70;;;;;;1542102;74;753;-69
2021/05/22 08:36:30;;;;;;;;;;;22.40;38.90;;;;;;1557985;74;1903;-69
2021/05/22 08:38:32;;;;;;;;;;;22.40;39.10;;;;;;1558499;73;1207;-68
2021/05/22 08:40:33;;;;;;;;;;;22.40;39.00;;;;;;1589391;73;797;-70
2021/05/22 08:42:36;;;;;;;;;;;22.40;38.90;;;;;;1581246;73;813;-68
2021/05/22 08:44:39;;;;;;;;;;;22.30;39.10;;;;;;1605506;73;727;-69
2021/05/22 08:46:41;;;;;;;;;;;22.30;39.30;;;;;;1593719;73;744;-72
2021/05/22 08:48:42;;;;;;;;;;;22.40;39.00;;;;;;1588293;73;1168;-69
2021/05/22 08:50:44;;;;;;;;;;;22.40;38.90;;;;;;1596938;73;796;-69
2021/05/22 08:52:46;;;;;;;;;;;22.40;38.90;;;;;;1601537;73;1055;-70
2021/05/22 08:54:48;;;;;;;;;;;22.40;39.20;;;;;;1598642;73;722;-68
2021/05/22 08:56:50;;;;;;;;;;;22.30;39.60;;;;;;1604078;73;1921;-79
2021/05/22 08:58:53;;;;;;;;;;;22.30;40.70;;;;;;1591140;73;1147;-68
2021/05/22 09:00:54;;;;;;;;;;;22.40;41.00;;;;;;1591570;73;751;-65
2021/05/22 09:02:56;;;;;;;;;;;22.50;41.00;;;;;;1597450;73;768;-69
2021/05/22 09:05:12;;;;;;;;;;;22.60;40.20;;;;;;1586022;73;680;-69
2021/05/22 09:07:14;;;;;;;;;;;22.60;39.70;;;;;;1591615;73;771;-69
2021/05/22 09:09:16;;;;;;;;;;;22.80;39.80;;;;;;1587869;73;1079;-68
2021/05/22 09:11:18;;;;;;;;;;;22.80;39.70;;;;;;1593569;73;770;-69
2021/05/22 09:13:20;;;;;;;;;;;22.80;39.40;;;;;;1597928;72;745;-69
2021/05/22 09:15:23;;;;;;;;;;;22.90;39.30;;;;;;1597453;73;1936;-71
2021/05/22 09:17:25;;;;;;;;;;;23.00;39.10;;;;;;1597742;73;970;-69
2021/05/22 09:19:28;;;;;;;;;;;22.90;38.90;;;;;;1611530;73;1130;-69
2021/05/22 09:21:31;;;;;;;;;;;23.00;38.80;;;;;;1596886;73;812;-69
2021/05/22 09:23:36;;;;;;;;;;;23.00;38.80;;;;;;1592320;73;1906;-70
2021/05/22 09:25:41;;;;;;;;;;;23.00;38.60;;;;;;1596204;73;1672;-68
2021/05/22 09:27:43;;;;;;;;;;;23.00;38.60;;;;;;1598878;73;765;-69
2021/05/22 09:29:45;;;;;;;;;;;22.90;38.60;;;;;;1581397;73;1126;-71
2021/05/22 09:31:47;;;;;;;;;;;22.90;38.60;;;;;;1601285;73;818;-69
2021/05/22 09:33:49;;;;;;;;;;;22.90;38.70;;;;;;1595615;73;820;-70
2021/05/22 09:35:52;;;;;;;;;;;22.90;38.60;;;;;;1593350;73;1931;-70
2021/05/22 09:37:55;;;;;;;;;;;23.00;38.60;;;;;;1594402;73;1799;-70
2021/05/22 09:39:57;;;;;;;;;;;23.10;38.70;;;;;;1600219;73;1159;-70
2021/05/22 09:42:00;;;;;;;;;;;23.00;38.40;;;;;;1606388;73;719;-70
2021/05/22 09:44:12;;;;;;;;;;;22.90;38.40;;;;;;1590376;73;1569;-70
2021/05/22 09:46:14;;;;;;;;;;;22.90;38.40;;;;;;1600289;73;759;-70
2021/05/22 09:48:16;;;;;;;;;;;22.90;38.50;;;;;;1596027;73;1143;-68
2021/05/22 09:50:28;;;;;;;;;;;22.90;38.50;;;;;;1587222;73;766;-70
2021/05/22 09:52:29;;;;;;;;;;;23.00;38.40;;;;;;1601111;73;830;-70
2021/05/22 09:54:50;;;;;;;;;;;23.00;38.30;;;;;;1603207;73;744;-67
2021/05/22 09:56:52;;;;;;;;;;;23.00;38.40;;;;;;1591655;73;1921;-69
2021/05/22 09:58:55;;;;;;;;;;;22.90;37.90;;;;;;1594315;73;1105;-69
2021/05/22 10:00:58;;;;;;;;;;;23.00;37.80;;;;;;1592876;73;974;-70
2021/05/22 10:03:05;;;;;;;;;;;23.00;37.80;;;;;;1596751;73;784;-70
2021/05/22 10:05:13;;;;;;;;;;;23.00;37.70;;;;;;1594405;73;1052;-69
2021/05/22 10:07:16;;;;;;;;;;;23.00;37.80;;;;;;1598577;73;652;-69
2021/05/22 10:09:18;;;;;;;;;;;23.00;37.40;;;;;;1594606;73;1183;-69
2021/05/22 10:11:20;;;;;;;;;;;23.00;37.40;;;;;;1587996;73;722;-69
2021/05/22 10:13:22;;;;;;;;;;;23.00;37.30;;;;;;1592877;73;778;-68
2021/05/22 10:15:24;;;;;;;;;;;23.00;37.40;;;;;;1602317;73;774;-67
2021/05/22 10:17:26;;;;;;;;;;;23.00;37.60;;;;;;1592695;73;1942;-67
2021/05/22 10:19:27;;;;;;;;;;;23.00;37.40;;;;;;1592541;73;1174;-68
2021/05/22 10:21:29;;;;;;;;;;;23.00;37.50;;;;;;1597673;73;822;-68
2021/05/22 10:23:31;;;;;;;;;;;23.00;37.50;;;;;;1594255;73;823;-68
2021/05/22 10:25:33;;;;;;;;;;;23.00;37.60;;;;;;1594896;73;728;-68
2021/05/22 10:27:35;;;;;;;;;;;23.00;37.60;;;;;;1597021;73;770;-65
2021/05/22 10:29:37;;;;;;;;;;;23.00;37.60;;;;;;1595662;73;1149;-68
2021/05/22 10:31:40;;;;;;;;;;;23.00;37.60;;;;;;1591828;73;711;-68
2021/05/22 10:33:41;;;;;;;;;;;23.00;37.60;;;;;;1594038;73;811;-68
2021/05/22 10:35:45;;;;;;;;;;;23.00;37.60;;;;;;1598008;73;878;-68
2021/05/22 10:37:48;;;;;;;;;;;23.00;37.60;;;;;;1592002;73;960;-66
2021/05/22 10:39:50;;;;;;;;;;;23.10;37.70;;;;;;1593863;73;1183;-68
2021/05/22 10:41:52;;;;;;;;;;;23.00;37.50;;;;;;1595589;73;767;-68
2021/05/22 10:43:56;;;;;;;;;;;23.00;37.60;;;;;;1588185;73;693;-69
2021/05/22 10:45:59;;;;;;;;;;;23.00;37.40;;;;;;1598719;73;1706;-67
2021/05/22 10:48:05;;;;;;;;;;;23.00;37.50;;;;;;1591751;73;701;-68
2021/05/22 10:50:07;;;;;;;;;;;23.00;37.40;;;;;;1596877;73;1073;-68
2021/05/22 10:52:17;;;;;;;;;;;23.00;37.60;;;;;;1592697;73;773;-68
2021/05/22 10:54:19;;;;;;;;;;;23.00;37.40;;;;;;1592121;73;2149;-68
2021/05/22 10:56:21;;;;;;;;;;;23.00;37.40;;;;;;1592394;73;1907;-70
2021/05/22 10:58:23;;;;;;;;;;;22.90;37.40;;;;;;1593542;73;1156;-68
2021/05/22 11:00:26;;;;;;;;;;;23.00;37.60;;;;;;1597561;73;799;-68
2021/05/22 11:02:34;;;;;;;;;;;23.00;37.70;;;;;;1594290;73;1094;-68
2021/05/22 11:04:37;;;;;;;;;;;22.90;37.90;;;;;;1593886;73;884;-68
2021/05/22 11:06:56;;;;;;;;;;;22.90;37.80;;;;;;1585580;73;695;-67
2021/05/22 11:08:57;;;;;;;;;;;23.00;37.60;;;;;;1589543;73;1814;-68
2021/05/22 11:11:00;;;;;;;;;;;22.90;37.50;;;;;;1605988;73;820;-70
2021/05/22 11:13:02;;;;;;;;;;;23.00;37.40;;;;;;1571619;73;823;-68
2021/05/22 11:15:04;;;;;;;;;;;22.90;37.40;;;;;;1603497;73;764;-70
2021/05/22 11:17:25;;;;;;;;;;;23.00;37.40;;;;;;1594279;73;1944;-69
2021/05/22 11:19:26;;;;;;;;;;;23.00;37.40;;;;;;1596667;73;1654;-67
2021/05/22 11:21:28;;;;;;;;;;;22.90;37.40;;;;;;1603990;73;832;-68
2021/05/22 11:23:30;;;;;;;;;;;23.00;37.30;;;;;;1596174;73;902;-68
2021/05/22 11:25:52;;;;;;;;;;;22.90;37.40;;;;;;1564654;74;862;-68
2021/05/22 11:28:00;;;;;;;;;;;22.90;37.40;;;;;;1591247;73;768;-69
2021/05/22 11:30:02;;;;;;;;;;;22.80;37.30;;;;;;1591920;73;1762;-68
2021/05/22 11:32:04;;;;;;;;;;;22.90;37.70;;;;;;1594808;73;766;-68
2021/05/22 11:34:22;;;;;;;;;;;22.90;37.60;;;;;;1588011;73;843;-68
2021/05/22 11:36:24;;;;;;;;;;;22.90;37.60;;;;;;1588485;73;1946;-68
2021/05/22 11:38:26;;;;;;;;;;;22.90;37.70;;;;;;1592241;73;1124;-66
2021/05/22 11:40:42;;;;;;;;;;;22.90;37.80;;;;;;1593161;73;780;-68
2021/05/22 11:42:44;;;;;;;;;;;22.90;37.80;;;;;;1596800;73;787;-68
2021/05/22 11:44:53;;;;;;;;;;;22.90;37.70;;;;;;1597726;73;896;-68
2021/05/22 11:46:55;;;;;;;;;;;22.90;37.70;;;;;;1592251;73;794;-68
2021/05/22 11:48:57;;;;;;;;;;;22.90;37.70;;;;;;1591643;73;1143;-68
2021/05/22 11:51:00;;;;;;;;;;;22.90;37.70;;;;;;1608387;73;839;-68
2021/05/22 11:53:04;;;;;;;;;;;22.90;37.70;;;;;;1593511;73;772;-69
2021/05/22 11:55:20;;;;;;;;;;;22.90;37.70;;;;;;1600838;73;1913;-69
2021/05/22 11:57:22;;;;;;;;;;;22.90;37.70;;;;;;1597942;73;1906;-68
2021/05/22 11:59:24;;;;;;;;;;;22.90;37.70;;;;;;1591447;73;1131;-68
2021/05/22 12:01:27;;;;;;;;;;;22.80;37.50;;;;;;1595883;73;682;-69
2021/05/22 12:03:29;;;;;;;;;;;22.80;37.40;;;;;;1594352;73;777;-70
2021/05/22 12:05:38;;;;;;;;;;;22.80;37.60;;;;;;1598211;73;793;-68
2021/05/22 12:07:47;;;;;;;;;;;22.80;37.60;;;;;;1596336;73;1507;-70
2021/05/22 12:09:49;;;;;;;;;;;22.90;37.70;;;;;;1593488;73;1708;-69
2021/05/22 12:12:02;;;;;;;;;;;22.80;37.60;;;;;;1590684;73;768;-69
2021/05/22 12:14:04;;;;;;;;;;;22.90;37.60;;;;;;1596985;73;775;-68
2021/05/22 12:16:08;;;;;;;;;;;22.90;37.50;;;;;;1592835;73;740;-69